Sunday, July 22, 2018, 12:25 AM EDT
Back to Local

K1V4, St Johnsbury Fairbanks

Location: Saint Johnsbury, VT, United States Lat: 44.417
Local Time: 12:25 AM EDT ( 4:25 GMT) Lon: -72.017
Time Zone: US/Eastern Elev: 695 ft

Show me the last for .
Show Coded

Time T Td Feel RH Dir Speed Gust Alt SLP Vis Weather Sky Remarks
2018-07-21 23:54 64 56 - 74 - - - 30.11 30.09 0 None
2018-07-21 22:54 65 57 - 75 - - - 30.11 30.08 0 None
2018-07-21 21:54 69 55 - 60 - - - 30.11 30.08 0 None
2018-07-21 20:54 72 56 76 57 - - - 30.09 30.06 0 None
2018-07-21 19:54 76 55 78 48 - - - 30.07 30.04 0 6-hr Min Temp (8pm): 75.9°F
6-hr Max Temp (8pm): 82.9°F
2018-07-21 18:54 79 55 79 43 - - - 30.06 30.03 0 None
2018-07-21 17:54 81 54 - 39 - - - 30.05 30.03 0 None
2018-07-21 16:54 82 52 - 35 - - - 30.06 30.04 0 None
2018-07-21 15:54 81 52 - 36 - - - 30.07 30.04 0 None
2018-07-21 14:54 81 54 - 39 - - - 30.08 30.04 0 None
2018-07-21 13:54 80 54 80 40 - - - 30.09 30.06 0 6-hr Min Temp (2pm): 62.1°F
6-hr Max Temp (2pm): 81.0°F
2018-07-21 12:54 79 52 - 39 - - - 30.10 30.07 0 None
2018-07-21 11:54 78 56 79 46 - - - 30.12 30.09 0 None
2018-07-21 10:54 75 55 77 49 - - - 30.13 30.10 0 None
2018-07-21 09:54 72 57 76 59 - - - 30.15 30.12 0 None
2018-07-21 08:54 68 57 - 67 - - - 30.15 30.12 0 None
2018-07-21 07:54 62 56 - 80 - - - 30.16 30.13 0 6-hr Min Temp (8am): 54.0°F
6-hr Max Temp (8am): 62.1°F
2018-07-21 06:54 57 55 - 93 - - - 30.17 30.14 0 None
2018-07-21 05:54 55 54 - 96 - - - 30.16 30.13 0 None
2018-07-21 04:54 55 54 - 96 - - - 30.15 30.12 0 None
2018-07-21 03:54 57 55 - 93 - - - 30.14 30.11 0 None
2018-07-21 02:54 58 56 - 93 - - - 30.13 30.10 0 None
2018-07-21 01:54 60 58 - 92 - - - 30.13 30.10 0 6-hr Min Temp (2am): 60.1°F
6-hr Max Temp (2am): 79.0°F
2018-07-21 00:54 61 57 - 86 - - - 30.14 30.11 0 24-hr Min Temp (1am): 50.0°F
24-hr Max Temp (1am): 86.0°F

Support USWX by starting your Amazon purchase here.